createdAt,value
2018-10-03T00:02:49.595Z,11.45
2018-10-03T00:05:19.094Z,11.41
2018-10-03T00:07:48.868Z,11.44
2018-10-03T00:10:18.956Z,11.41
2018-10-03T00:12:48.727Z,11.42
2018-10-03T00:15:18.534Z,11.43
2018-10-03T00:17:48.287Z,11.48
2018-10-03T00:20:18.062Z,11.42
2018-10-03T00:22:47.773Z,11.45
2018-10-03T00:25:17.806Z,11.45
2018-10-03T00:27:47.397Z,11.41
2018-10-03T00:30:17.061Z,11.38
2018-10-03T00:32:46.887Z,11.45
2018-10-03T00:35:16.865Z,11.45
2018-10-03T00:55:09.001Z,11.41
2018-10-03T00:57:38.603Z,11.38
2018-10-03T01:00:08.388Z,11.40
2018-10-03T01:02:38.330Z,11.41
2018-10-03T01:05:08.124Z,11.38
2018-10-03T01:07:37.837Z,11.40
2018-10-03T01:10:07.704Z,11.41
2018-10-03T01:12:37.396Z,11.47
2018-10-03T01:15:07.511Z,11.50
2018-10-03T01:17:37.388Z,11.48
2018-10-03T01:37:29.458Z,11.39
2018-10-03T01:39:59.366Z,11.49
2018-10-03T01:42:29.178Z,11.49
2018-10-03T01:44:58.591Z,11.55
2018-10-03T01:47:28.454Z,11.52
2018-10-03T01:49:58.121Z,11.47
2018-10-03T01:52:27.839Z,11.45
2018-10-03T01:54:57.610Z,11.45
2018-10-03T01:57:27.385Z,11.50
2018-10-03T01:59:57.128Z,11.48
2018-10-03T02:02:27.167Z,11.44
2018-10-03T02:04:57.105Z,11.46
2018-10-03T02:07:26.767Z,11.38
2018-10-03T02:27:18.318Z,11.32
2018-10-03T02:29:48.251Z,11.39
2018-10-03T02:32:17.960Z,11.37
2018-10-03T02:34:47.918Z,11.39
2018-10-03T02:37:17.858Z,11.38
2018-10-03T02:39:47.444Z,11.42
2018-10-03T02:42:17.590Z,11.40
2018-10-03T02:44:47.349Z,11.40
2018-10-03T02:47:17.127Z,11.41
2018-10-03T02:49:46.602Z,11.37
2018-10-03T02:52:16.033Z,11.36
2018-10-03T02:54:45.731Z,11.26
2018-10-03T02:57:15.250Z,11.31
2018-10-03T02:59:44.789Z,11.37
2018-10-03T03:02:14.291Z,11.38
2018-10-03T03:04:44.431Z,11.27
2018-10-03T03:24:36.080Z,11.15
2018-10-03T03:27:06.280Z,11.14
2018-10-03T03:29:35.791Z,11.20
2018-10-03T03:32:05.453Z,11.20
2018-10-03T03:34:34.982Z,11.15
2018-10-03T03:37:04.742Z,11.22
2018-10-03T03:39:34.112Z,11.19
2018-10-03T03:42:04.043Z,11.23
2018-10-03T03:44:33.510Z,11.18
2018-10-03T04:04:25.988Z,10.92
2018-10-03T04:06:55.621Z,11.00
2018-10-03T04:09:25.238Z,10.97
2018-10-03T04:11:55.233Z,10.92
2018-10-03T04:14:24.941Z,10.89
2018-10-03T04:16:54.423Z,10.99
2018-10-03T04:19:24.215Z,10.98
2018-10-03T04:21:53.867Z,10.93
2018-10-03T04:24:23.702Z,10.93
2018-10-03T04:26:53.654Z,10.95
2018-10-03T04:29:23.342Z,11.12
2018-10-03T04:31:52.899Z,11.16
2018-10-03T04:34:22.641Z,11.27
2018-10-03T04:36:52.056Z,11.21
2018-10-03T04:39:21.564Z,11.29
2018-10-03T04:41:50.991Z,11.30
2018-10-03T04:44:20.423Z,11.44
2018-10-03T04:46:50.400Z,11.44
2018-10-03T04:49:20.207Z,11.57
2018-10-03T04:51:49.773Z,11.53
2018-10-03T04:54:19.494Z,11.46
2018-10-03T04:56:49.601Z,11.35
2018-10-03T04:59:19.189Z,11.13
2018-10-03T05:01:48.945Z,10.99
2018-10-03T05:04:18.884Z,10.97
2018-10-03T05:06:48.616Z,10.88
2018-10-03T05:09:18.158Z,10.93
2018-10-03T05:11:47.889Z,11.07
2018-10-03T05:14:17.326Z,11.02
2018-10-03T05:34:08.968Z,10.98
2018-10-03T05:36:39.001Z,10.98
2018-10-03T05:39:11.771Z,10.93
2018-10-03T05:41:42.280Z,11.02
2018-10-03T05:44:12.762Z,11.08
2018-10-03T05:46:42.730Z,11.11
2018-10-03T05:49:12.163Z,11.18
2018-10-03T05:51:42.107Z,11.14
2018-10-03T05:54:11.954Z,11.30
2018-10-03T05:56:41.594Z,11.35
2018-10-03T05:59:11.448Z,11.25
2018-10-03T06:01:41.115Z,11.30
2018-10-03T06:04:10.889Z,11.24
2018-10-03T06:06:41.179Z,11.34
2018-10-03T06:26:33.188Z,11.99
2018-10-03T06:29:03.070Z,11.99
2018-10-03T06:31:32.927Z,11.99
2018-10-03T06:34:02.630Z,12.01
2018-10-03T06:36:32.915Z,11.99
2018-10-03T06:39:02.737Z,11.86
2018-10-03T06:41:32.412Z,11.95
2018-10-03T06:44:02.119Z,12.13
2018-10-03T06:46:32.768Z,12.17
2018-10-03T06:49:03.011Z,12.13
2018-10-03T06:51:32.587Z,12.25
2018-10-03T06:54:02.439Z,12.41
2018-10-03T06:56:32.051Z,12.46
2018-10-03T07:16:23.847Z,12.51
2018-10-03T07:36:15.322Z,12.88
2018-10-03T07:38:45.929Z,12.27
2018-10-03T07:41:16.203Z,12.97
2018-10-03T07:43:46.029Z,13.04
2018-10-03T07:46:15.488Z,13.12
2018-10-03T07:48:45.234Z,13.31
2018-10-03T07:51:15.427Z,13.42
2018-10-03T07:53:45.283Z,13.46
2018-10-03T07:56:14.790Z,13.53
2018-10-03T07:58:44.684Z,13.56
2018-10-03T08:01:14.454Z,13.75
2018-10-03T08:21:06.622Z,14.71
2018-10-03T08:23:36.365Z,14.64
2018-10-03T08:26:06.141Z,14.79
2018-10-03T08:28:36.533Z,14.75
2018-10-03T08:31:06.332Z,14.66
2018-10-03T08:33:36.107Z,14.61
2018-10-03T08:36:05.934Z,14.75
2018-10-03T08:38:35.458Z,14.86
2018-10-03T08:41:05.026Z,15.12
2018-10-03T08:43:34.614Z,15.15
2018-10-03T08:46:03.919Z,15.13
2018-10-03T08:48:33.614Z,15.40
2018-10-03T08:51:03.136Z,15.55
2018-10-03T09:16:42.914Z,16.67
2018-10-03T09:19:13.198Z,16.67
2018-10-03T09:21:42.844Z,16.80
2018-10-03T09:24:12.717Z,16.75
2018-10-03T09:26:42.393Z,17.03
2018-10-03T09:29:11.946Z,17.33
2018-10-03T09:31:42.160Z,17.37
2018-10-03T09:34:11.977Z,17.48
2018-10-03T09:36:41.817Z,17.74
2018-10-03T09:39:13.034Z,17.74
2018-10-03T09:41:42.956Z,17.61
2018-10-03T09:44:12.827Z,17.59
2018-10-03T09:46:42.784Z,17.39
2018-10-03T09:49:12.402Z,17.34
2018-10-03T09:51:42.097Z,17.12
2018-10-03T09:54:11.843Z,17.36
2018-10-03T09:56:41.381Z,17.27
2018-10-03T09:59:11.209Z,17.31
2018-10-03T10:01:41.123Z,17.43
2018-10-03T10:04:10.868Z,17.42
2018-10-03T10:06:40.666Z,17.55
2018-10-03T10:09:11.442Z,17.86
2018-10-03T10:11:41.207Z,18.07
2018-10-03T10:14:10.433Z,18.20
2018-10-03T10:16:40.856Z,18.46
2018-10-03T10:19:10.546Z,18.98
2018-10-03T10:21:40.161Z,19.39
2018-10-03T10:24:10.075Z,19.91
2018-10-03T10:26:39.706Z,19.98
2018-10-03T10:29:09.398Z,20.03
2018-10-03T10:31:39.512Z,19.82
2018-10-03T10:34:09.324Z,20.03
2018-10-03T10:36:39.046Z,20.21
2018-10-03T10:39:10.798Z,19.80
2018-10-03T10:41:40.566Z,19.56
2018-10-03T11:01:32.906Z,19.91
2018-10-03T11:04:02.472Z,20.47
2018-10-03T11:06:31.994Z,20.75
2018-10-03T11:09:02.083Z,20.87
2018-10-03T11:11:31.721Z,21.25
2018-10-03T11:31:23.248Z,22.54
2018-10-03T11:33:52.822Z,22.67
2018-10-03T11:36:22.466Z,22.87
2018-10-03T11:38:52.323Z,22.88
2018-10-03T11:41:22.199Z,22.63
2018-10-03T11:43:51.787Z,22.53
2018-10-03T11:46:21.670Z,22.19
2018-10-03T11:48:52.011Z,22.00
2018-10-03T11:51:21.679Z,21.71
2018-10-03T11:53:51.821Z,21.80
2018-10-03T11:56:21.415Z,22.04
2018-10-03T11:58:51.348Z,22.48
2018-10-03T12:18:43.522Z,23.15
2018-10-03T12:21:13.480Z,23.43
2018-10-03T12:23:43.317Z,23.12
2018-10-03T12:26:13.455Z,23.44
2018-10-03T12:28:43.022Z,23.85
2018-10-03T12:31:12.623Z,23.75
2018-10-03T12:33:42.502Z,23.77
2018-10-03T12:36:12.188Z,23.84
2018-10-03T12:38:42.358Z,24.15
2018-10-03T12:41:12.083Z,24.25
2018-10-03T12:43:41.807Z,24.09
2018-10-03T12:46:11.702Z,23.80
2018-10-03T12:48:41.754Z,23.91
2018-10-03T12:51:11.474Z,23.75
2018-10-03T12:53:41.605Z,23.04
2018-10-03T12:56:11.724Z,23.16
2018-10-03T12:58:41.425Z,23.29
2018-10-03T13:18:32.859Z,23.59
2018-10-03T13:21:02.435Z,23.53
2018-10-03T13:23:32.043Z,23.48
2018-10-03T13:43:24.862Z,24.10
2018-10-03T14:03:17.692Z,20.98
2018-10-03T14:05:47.715Z,20.69
2018-10-03T14:08:17.238Z,20.32
2018-10-03T14:10:47.054Z,20.25
2018-10-03T14:13:17.090Z,20.46
2018-10-03T14:15:46.717Z,21.16
2018-10-03T14:35:38.975Z,20.13
2018-10-03T14:55:30.670Z,19.75
2018-10-03T14:58:00.599Z,19.68
2018-10-03T15:00:30.286Z,19.47
2018-10-03T15:03:00.035Z,19.49
2018-10-03T15:05:30.094Z,19.29
2018-10-03T15:07:59.903Z,19.37
2018-10-03T15:10:29.355Z,19.27
2018-10-03T15:12:59.337Z,19.19
2018-10-03T15:15:29.126Z,18.96
2018-10-03T15:17:58.743Z,18.86
2018-10-03T15:20:28.723Z,18.66
2018-10-03T15:40:20.767Z,17.73
2018-10-03T15:42:51.098Z,17.61
2018-10-03T16:02:42.688Z,17.15
2018-10-03T16:05:12.447Z,17.09
2018-10-03T16:07:42.859Z,17.02
2018-10-03T16:10:12.464Z,17.02
2018-10-03T16:12:42.250Z,16.89
2018-10-03T16:15:11.927Z,16.93
2018-10-03T16:17:41.812Z,16.90
2018-10-03T16:20:11.847Z,16.89
2018-10-03T16:22:41.785Z,16.79
2018-10-03T16:25:11.604Z,16.60
2018-10-03T16:27:41.330Z,16.47
2018-10-03T16:47:32.273Z,15.78
2018-10-03T16:50:02.360Z,15.71
2018-10-03T16:52:31.964Z,15.71
2018-10-03T17:21:06.122Z,15.34
2018-10-03T17:23:35.838Z,15.33
2018-10-03T17:26:05.535Z,15.33
2018-10-03T17:28:35.002Z,15.34
2018-10-03T17:31:05.006Z,15.21
2018-10-03T17:33:34.416Z,15.19
2018-10-03T17:36:04.092Z,15.20
2018-10-03T17:38:33.751Z,15.10
2018-10-03T17:41:03.502Z,15.09
2018-10-03T17:43:32.905Z,15.04
2018-10-03T17:46:02.556Z,14.98
2018-10-03T17:48:31.962Z,14.97
2018-10-03T18:08:24.026Z,14.31
2018-10-03T18:10:53.941Z,14.28
2018-10-03T18:13:23.926Z,14.16
2018-10-03T18:15:53.861Z,14.14
2018-10-03T18:18:23.684Z,14.10
2018-10-03T18:20:53.427Z,13.99
2018-10-03T18:23:23.675Z,14.03
2018-10-03T18:25:53.440Z,13.91
2018-10-03T18:28:23.343Z,13.91
2018-10-03T18:30:53.621Z,13.89
2018-10-03T18:33:23.653Z,13.87
2018-10-03T18:35:53.532Z,13.93
2018-10-03T18:38:23.651Z,13.86
2018-10-03T18:58:15.158Z,13.70
2018-10-03T19:00:45.619Z,13.62
2018-10-03T19:03:15.327Z,13.63
2018-10-03T19:05:44.916Z,13.62
2018-10-03T19:08:14.501Z,13.56
2018-10-03T19:10:44.194Z,13.51
2018-10-03T19:13:13.939Z,13.44
2018-10-03T19:15:44.108Z,13.44
2018-10-03T19:18:14.050Z,13.42
2018-10-03T19:20:43.925Z,13.32
2018-10-03T19:23:14.302Z,13.25
2018-10-03T19:25:44.361Z,13.28
2018-10-03T19:28:14.130Z,13.29
2018-10-03T19:30:44.382Z,13.23
2018-10-03T19:33:14.251Z,13.13
2018-10-03T19:35:44.076Z,13.08
2018-10-03T19:38:13.817Z,13.07
2018-10-03T19:40:43.592Z,13.06
2018-10-03T19:43:13.396Z,13.06
2018-10-03T19:45:43.397Z,13.07
2018-10-03T19:48:13.065Z,12.99
2018-10-03T19:50:42.849Z,12.97
2018-10-03T20:10:35.528Z,12.76
2018-10-03T20:13:05.348Z,12.76
2018-10-03T20:15:34.918Z,12.78
2018-10-03T20:18:05.060Z,12.69
2018-10-03T20:20:34.853Z,12.60
2018-10-03T20:40:27.715Z,12.50
2018-10-03T20:42:57.446Z,12.49
2018-10-03T20:45:27.311Z,12.48
2018-10-03T20:47:57.567Z,12.50
2018-10-03T20:50:27.339Z,12.50
2018-10-03T20:52:57.402Z,12.41
2018-10-03T20:55:27.842Z,12.44
2018-10-03T20:57:57.559Z,12.40
2018-10-03T21:00:27.420Z,12.42
2018-10-03T21:02:57.535Z,12.34
2018-10-03T21:05:28.361Z,12.30
2018-10-03T21:07:58.787Z,12.23
2018-10-03T21:10:28.542Z,12.28
2018-10-03T21:12:58.434Z,12.20
2018-10-03T21:15:28.524Z,12.24
2018-10-03T21:17:58.373Z,12.21
2018-10-03T21:20:28.165Z,12.18
2018-10-03T21:22:58.127Z,12.17
2018-10-03T21:25:27.911Z,12.10
2018-10-03T21:27:57.713Z,12.11
2018-10-03T21:30:27.775Z,12.10
2018-10-03T21:32:57.535Z,12.00
2018-10-03T21:35:27.539Z,11.98
2018-10-03T21:37:57.723Z,11.93
2018-10-03T21:40:27.556Z,11.86
2018-10-03T21:42:57.274Z,11.83
2018-10-03T21:45:27.535Z,11.81
2018-10-03T21:47:57.462Z,11.71
2018-10-03T21:50:27.230Z,11.74
2018-10-03T21:52:57.450Z,11.72
2018-10-03T21:55:27.281Z,11.73
2018-10-03T21:57:57.118Z,11.77
2018-10-03T22:00:31.900Z,11.45
2018-10-03T22:03:01.618Z,11.64
2018-10-03T22:05:31.385Z,11.63
2018-10-03T22:08:01.353Z,11.61
2018-10-03T22:10:31.190Z,11.54
2018-10-03T22:13:00.960Z,11.44
2018-10-03T22:15:30.887Z,11.44
2018-10-03T22:18:00.718Z,11.45
2018-10-03T22:20:30.390Z,11.41
2018-10-03T22:23:00.343Z,11.33
2018-10-03T22:25:30.221Z,11.39
2018-10-03T22:27:59.914Z,11.28
2018-10-03T22:30:30.293Z,11.27
2018-10-03T22:33:00.174Z,11.27
2018-10-03T22:35:30.001Z,11.19
2018-10-03T22:38:00.078Z,11.20
2018-10-03T22:40:29.828Z,11.22
2018-10-03T22:42:59.533Z,11.17
2018-10-03T22:45:29.460Z,11.20
2018-10-03T22:47:59.206Z,11.20
2018-10-03T22:50:29.053Z,11.13
2018-10-03T22:52:58.853Z,11.08
2018-10-03T22:55:28.596Z,11.04
2018-10-03T22:57:58.301Z,11.06
2018-10-03T23:00:28.425Z,11.08
2018-10-03T23:02:58.347Z,11.04
2018-10-03T23:05:27.991Z,11.06
2018-10-03T23:07:58.185Z,11.05
2018-10-03T23:10:28.055Z,11.02
2018-10-03T23:12:57.924Z,10.98
2018-10-03T23:15:27.889Z,10.92
2018-10-03T23:17:57.735Z,10.98
2018-10-03T23:20:27.423Z,11.04
2018-10-03T23:22:57.791Z,10.94
2018-10-03T23:25:27.747Z,10.92
2018-10-03T23:27:57.661Z,10.96
2018-10-03T23:30:27.643Z,10.98
2018-10-03T23:32:57.522Z,10.93
2018-10-03T23:35:27.284Z,10.92
2018-10-03T23:37:57.342Z,10.88
2018-10-03T23:40:27.269Z,10.83
2018-10-03T23:42:57.167Z,10.80
2018-10-03T23:45:27.217Z,10.81
2018-10-03T23:47:56.990Z,10.83
2018-10-03T23:50:26.952Z,10.81
2018-10-03T23:52:57.082Z,10.81
2018-10-03T23:55:26.805Z,10.78
2018-10-03T23:57:56.886Z,10.76
